createdAt,value
2023-03-05T00:00:05.397Z,64.24
2023-03-05T00:00:17.996Z,64.34
2023-03-05T00:00:29.930Z,64.49
2023-03-05T00:00:41.902Z,64.68
2023-03-05T00:00:53.859Z,64.42
2023-03-05T00:01:11.047Z,64.49
2023-03-05T00:01:26.683Z,64.80
2023-03-05T00:01:38.790Z,65.13
2023-03-05T00:01:50.683Z,65.21
2023-03-05T00:02:03.109Z,65.05
2023-03-05T00:02:16.022Z,65.21
2023-03-05T00:02:28.004Z,65.30
2023-03-05T00:02:42.877Z,64.80
2023-03-05T00:02:54.997Z,65.20
2023-03-05T00:03:06.968Z,64.46
2023-03-05T00:03:18.967Z,65.43
2023-03-05T00:03:30.979Z,64.92
2023-03-05T00:03:43.171Z,64.97
2023-03-05T00:03:57.970Z,65.07
2023-03-05T00:04:15.370Z,64.66
2023-03-05T00:04:27.463Z,64.81
2023-03-05T00:04:39.391Z,65.14
2023-03-05T00:04:51.324Z,65.10
2023-03-05T00:05:03.438Z,64.56
2023-03-05T00:05:15.468Z,64.46
2023-03-05T00:05:27.488Z,64.79
2023-03-05T00:05:39.497Z,64.74
2023-03-05T00:05:56.971Z,64.53
2023-03-05T00:06:08.945Z,65.22
2023-03-05T00:06:23.081Z,64.72
2023-03-05T00:06:35.126Z,65.23
2023-03-05T00:06:47.217Z,65.66
2023-03-05T00:06:59.164Z,64.97
2023-03-05T00:07:14.191Z,65.29
2023-03-05T00:07:26.168Z,65.79
2023-03-05T00:07:38.195Z,65.71
2023-03-05T00:07:50.921Z,65.95
2023-03-05T00:08:02.981Z,65.58
2023-03-05T00:08:15.022Z,65.94
2023-03-05T00:08:28.193Z,66.12
2023-03-05T00:08:40.446Z,66.19
2023-03-05T00:08:53.406Z,66.20
2023-03-05T00:09:06.049Z,66.27
2023-03-05T00:09:18.094Z,65.29
2023-03-05T00:09:30.015Z,66.15
2023-03-05T00:09:42.074Z,65.42
2023-03-05T00:09:54.074Z,65.45
2023-03-05T00:10:06.753Z,65.28
2023-03-05T00:10:18.702Z,65.56
2023-03-05T00:10:30.635Z,65.01
2023-03-05T00:10:42.628Z,65.62
2023-03-05T00:11:03.341Z,65.97
2023-03-05T00:11:15.404Z,64.98
2023-03-05T00:11:30.095Z,65.39
2023-03-05T00:11:42.358Z,65.68
2023-03-05T00:11:54.292Z,65.60
2023-03-05T00:12:08.017Z,65.34
2023-03-05T00:12:20.038Z,66.15
2023-03-05T00:12:32.083Z,66.06
2023-03-05T00:12:43.983Z,66.26
2023-03-05T00:12:56.003Z,66.24
2023-03-05T00:13:08.088Z,67.27
2023-03-05T00:13:20.034Z,67.07
2023-03-05T00:13:35.487Z,67.56
2023-03-05T00:13:47.606Z,67.90
2023-03-05T00:14:01.847Z,67.84
2023-03-05T00:14:13.869Z,68.27
2023-03-05T00:14:25.807Z,67.53
2023-03-05T00:14:37.737Z,67.57
2023-03-05T00:14:49.701Z,67.78
2023-03-05T00:15:01.711Z,67.61
2023-03-05T00:15:16.054Z,67.10
2023-03-05T00:15:28.014Z,67.12
2023-03-05T00:15:43.043Z,67.49
2023-03-05T00:15:55.706Z,67.15
2023-03-05T00:16:11.770Z,67.67
2023-03-05T00:16:26.724Z,67.42
2023-03-05T00:16:39.869Z,67.22
2023-03-05T00:16:51.816Z,67.27
2023-03-05T00:17:05.861Z,67.65
2023-03-05T00:17:18.123Z,68.08
2023-03-05T00:17:30.295Z,67.79
2023-03-05T00:17:42.264Z,68.14
2023-03-05T00:17:54.172Z,68.02
2023-03-05T00:18:06.224Z,67.99
2023-03-05T00:18:21.575Z,67.78
2023-03-05T00:18:34.291Z,67.50
2023-03-05T00:18:46.570Z,67.46
2023-03-05T00:19:00.213Z,67.51
2023-03-05T00:19:12.353Z,67.59
2023-03-05T00:19:24.255Z,67.42
2023-03-05T00:19:36.445Z,67.51
2023-03-05T00:19:48.540Z,67.91
2023-03-05T00:20:02.340Z,68.69
2023-03-05T00:20:15.007Z,68.74
2023-03-05T00:20:27.011Z,69.26
2023-03-05T00:20:38.949Z,69.10
2023-03-05T00:20:50.943Z,68.72
2023-03-05T00:21:06.262Z,68.69
2023-03-05T00:21:18.138Z,68.43
2023-03-05T00:21:33.260Z,68.84
2023-03-05T00:21:45.893Z,68.78
2023-03-05T00:21:57.871Z,69.35
2023-03-05T00:22:09.989Z,69.00
2023-03-05T00:22:21.941Z,68.84
2023-03-05T00:22:35.565Z,68.65
2023-03-05T00:22:47.508Z,69.27
2023-03-05T00:22:59.413Z,69.08
2023-03-05T00:23:11.691Z,68.48
2023-03-05T00:23:23.763Z,68.66
2023-03-05T00:23:35.659Z,68.55
2023-03-05T00:23:47.745Z,68.55
2023-03-05T00:24:01.614Z,67.83
2023-03-05T00:24:17.153Z,67.77
2023-03-05T00:24:29.063Z,68.08
2023-03-05T00:24:41.098Z,68.62
2023-03-05T00:24:53.514Z,68.17
2023-03-05T00:25:05.991Z,68.24
2023-03-05T00:25:18.202Z,67.98
2023-03-05T00:25:30.111Z,69.13
2023-03-05T00:25:42.750Z,68.74
2023-03-05T00:25:54.738Z,68.82
2023-03-05T00:26:07.759Z,69.00
2023-03-05T00:26:22.148Z,68.93
2023-03-05T00:26:36.877Z,69.03
2023-03-05T00:26:49.722Z,69.29
2023-03-05T00:27:02.236Z,69.04
2023-03-05T00:27:15.063Z,68.77
2023-03-05T00:27:27.013Z,68.81
2023-03-05T00:27:38.959Z,69.16
2023-03-05T00:27:50.925Z,68.79
2023-03-05T00:28:03.667Z,69.01
2023-03-05T00:28:15.659Z,69.04
2023-03-05T00:28:27.561Z,69.24
2023-03-05T00:28:39.626Z,69.10
2023-03-05T00:28:52.504Z,68.74
2023-03-05T00:29:05.584Z,68.73
2023-03-05T00:29:20.352Z,68.93
2023-03-05T00:29:32.239Z,68.51
2023-03-05T00:29:44.197Z,68.33
2023-03-05T00:29:56.161Z,68.51
2023-03-05T00:30:09.095Z,68.84
2023-03-05T00:30:21.102Z,69.29
2023-03-05T00:30:33.812Z,70.54
2023-03-05T00:30:46.121Z,70.55
2023-03-05T00:31:01.341Z,69.74
2023-03-05T00:31:13.324Z,68.88
2023-03-05T00:31:33.951Z,69.29
2023-03-05T00:31:46.208Z,69.66
2023-03-05T00:31:58.526Z,69.50
2023-03-05T00:32:10.497Z,69.53
2023-03-05T00:32:22.588Z,70.69
2023-03-05T00:32:36.268Z,70.47
2023-03-05T00:32:48.416Z,70.80
2023-03-05T00:33:00.412Z,71.37
2023-03-05T00:33:13.335Z,71.39
2023-03-05T00:33:25.270Z,71.40
2023-03-05T00:33:37.299Z,71.66
2023-03-05T00:33:56.887Z,71.53
2023-03-05T00:34:12.207Z,71.90
2023-03-05T00:34:25.760Z,72.02
2023-03-05T00:34:37.800Z,71.69
2023-03-05T00:34:52.434Z,70.84
2023-03-05T00:35:04.767Z,70.65
2023-03-05T00:35:16.712Z,70.89
2023-03-05T00:35:29.118Z,70.37
2023-03-05T00:35:48.631Z,70.33
2023-03-05T00:36:05.913Z,70.39
2023-03-05T00:36:18.162Z,70.06
2023-03-05T00:36:30.493Z,70.43
2023-03-05T00:36:44.997Z,69.69
2023-03-05T00:36:57.058Z,69.62
2023-03-05T00:37:09.117Z,69.86
2023-03-05T00:37:21.059Z,69.61
2023-03-05T00:37:33.046Z,69.47
2023-03-05T00:37:45.069Z,69.59
2023-03-05T00:37:57.411Z,69.41
2023-03-05T00:38:10.571Z,69.54
2023-03-05T00:38:25.057Z,69.71
2023-03-05T00:38:37.037Z,69.46
2023-03-05T00:38:49.194Z,69.43
2023-03-05T00:39:01.373Z,69.85
2023-03-05T00:39:14.086Z,69.40
2023-03-05T00:39:26.005Z,69.53
2023-03-05T00:39:38.023Z,69.79
2023-03-05T00:39:49.983Z,69.88
2023-03-05T00:40:03.000Z,69.76
2023-03-05T00:40:15.247Z,69.78
2023-03-05T00:40:27.352Z,69.96
2023-03-05T00:40:40.833Z,69.45
2023-03-05T00:40:52.878Z,69.51
2023-03-05T00:41:04.878Z,69.64
2023-03-05T00:41:17.319Z,69.93
2023-03-05T00:41:29.241Z,69.66
2023-03-05T00:41:41.402Z,69.81
2023-03-05T00:41:56.336Z,69.54
2023-03-05T00:42:08.370Z,68.80
2023-03-05T00:42:20.324Z,69.73
2023-03-05T00:42:38.404Z,68.81
2023-03-05T00:42:50.581Z,69.22
2023-03-05T00:43:02.674Z,69.28
2023-03-05T00:43:14.609Z,69.09
2023-03-05T00:43:26.571Z,69.39
2023-03-05T00:43:38.481Z,69.19
2023-03-05T00:43:50.551Z,69.18
2023-03-05T00:44:02.858Z,69.44
2023-03-05T00:44:14.781Z,68.84
2023-03-05T00:44:26.831Z,69.55
2023-03-05T00:44:38.741Z,68.81
2023-03-05T00:44:50.664Z,69.21
2023-03-05T00:45:02.550Z,69.21
2023-03-05T00:45:14.713Z,69.31
2023-03-05T00:45:26.672Z,69.26
2023-03-05T00:45:39.026Z,69.34
2023-03-05T00:45:51.042Z,69.10
2023-03-05T00:46:03.176Z,69.27
2023-03-05T00:46:16.124Z,69.57
2023-03-05T00:46:28.500Z,69.36
2023-03-05T00:46:40.642Z,69.77
2023-03-05T00:46:52.824Z,69.26
2023-03-05T00:47:05.206Z,69.49
2023-03-05T00:47:18.422Z,69.38
2023-03-05T00:47:30.585Z,69.64
2023-03-05T00:47:42.536Z,69.58
2023-03-05T00:47:54.633Z,69.50
2023-03-05T00:48:06.666Z,69.43
2023-03-05T00:48:18.597Z,69.28
2023-03-05T00:48:30.622Z,69.48
2023-03-05T00:48:43.300Z,69.67
2023-03-05T00:48:55.865Z,69.88
2023-03-05T00:49:07.916Z,69.40
2023-03-05T00:49:20.008Z,69.37
2023-03-05T00:49:32.019Z,70.19
2023-03-05T00:49:44.143Z,70.22
2023-03-05T00:49:56.090Z,69.75
2023-03-05T00:50:09.190Z,69.96
2023-03-05T00:50:21.299Z,69.78
2023-03-05T00:50:33.225Z,70.12
2023-03-05T00:50:46.019Z,69.90
2023-03-05T00:50:58.034Z,70.18
2023-03-05T00:51:10.409Z,69.93
2023-03-05T00:51:23.116Z,69.73
2023-03-05T00:51:35.198Z,69.75
2023-03-05T00:51:47.230Z,69.52
2023-03-05T00:52:01.578Z,69.84
2023-03-05T00:52:13.589Z,69.54
2023-03-05T00:52:26.022Z,70.23
2023-03-05T00:52:38.266Z,70.25
2023-03-05T00:52:50.252Z,69.99
2023-03-05T00:53:02.229Z,70.09
2023-03-05T00:53:14.356Z,69.95
2023-03-05T00:53:26.601Z,70.25
2023-03-05T00:53:38.712Z,70.23
2023-03-05T00:53:50.930Z,70.36
2023-03-05T00:54:06.275Z,70.48
2023-03-05T00:54:18.718Z,70.58
2023-03-05T00:54:30.652Z,70.36
2023-03-05T00:54:42.603Z,70.53
2023-03-05T00:54:54.573Z,70.61
2023-03-05T00:55:06.874Z,70.58
2023-03-05T00:55:19.004Z,70.65
2023-03-05T00:55:31.082Z,71.24
2023-03-05T00:55:43.061Z,71.31
2023-03-05T00:55:55.085Z,71.10
2023-03-05T00:56:07.683Z,70.95
2023-03-05T00:56:20.226Z,71.32
2023-03-05T00:56:32.290Z,71.42
2023-03-05T00:56:44.994Z,71.30
2023-03-05T00:56:59.939Z,70.62
2023-03-05T00:57:11.889Z,70.17
2023-03-05T00:57:23.848Z,70.64
2023-03-05T00:57:35.827Z,70.10
2023-03-05T00:57:47.771Z,70.78
2023-03-05T00:57:59.690Z,70.32
2023-03-05T00:58:14.551Z,70.65
2023-03-05T00:58:26.763Z,70.34
2023-03-05T00:58:39.363Z,70.62
2023-03-05T00:58:51.559Z,70.44
2023-03-05T00:59:03.623Z,70.34
2023-03-05T00:59:15.532Z,70.27
2023-03-05T00:59:27.563Z,70.14
2023-03-05T00:59:39.523Z,70.87
2023-03-05T00:59:51.487Z,71.64
2023-03-05T01:00:04.302Z,71.97
2023-03-05T01:00:17.144Z,72.38
2023-03-05T01:00:29.565Z,72.08
2023-03-05T01:00:41.737Z,72.19
2023-03-05T01:00:57.626Z,71.98
2023-03-05T01:01:09.588Z,71.62
2023-03-05T01:01:21.772Z,71.56
2023-03-05T01:01:33.784Z,71.59
2023-03-05T01:01:45.873Z,71.74
2023-03-05T01:01:57.941Z,71.43
2023-03-05T01:02:10.350Z,71.15
2023-03-05T01:02:22.283Z,71.08
2023-03-05T01:02:34.893Z,71.89
2023-03-05T01:02:46.958Z,72.01
2023-03-05T01:02:58.978Z,72.11
2023-03-05T01:03:11.066Z,72.38
2023-03-05T01:03:23.069Z,72.04
2023-03-05T01:03:35.799Z,72.40
2023-03-05T01:03:47.802Z,72.16
2023-03-05T01:04:01.126Z,72.23
2023-03-05T01:04:13.169Z,72.60
2023-03-05T01:04:25.108Z,72.10
2023-03-05T01:04:37.260Z,71.57
2023-03-05T01:04:49.547Z,71.26
2023-03-05T01:05:01.999Z,70.92
2023-03-05T01:05:15.328Z,70.66
2023-03-05T01:05:27.545Z,70.63
2023-03-05T01:05:39.501Z,70.36
2023-03-05T01:05:51.463Z,70.15
2023-03-05T01:06:08.712Z,69.77
2023-03-05T01:06:46.651Z,70.33
2023-03-05T01:06:59.350Z,69.90
2023-03-05T01:07:11.412Z,69.88
2023-03-05T01:07:23.462Z,70.37
2023-03-05T01:07:35.350Z,70.07
2023-03-05T01:07:47.338Z,69.67
2023-03-05T01:07:59.338Z,69.57
2023-03-05T01:08:11.569Z,70.00
2023-03-05T01:08:24.782Z,69.94
2023-03-05T01:08:37.779Z,70.00
2023-03-05T01:08:50.170Z,70.13
2023-03-05T01:09:02.145Z,70.65
2023-03-05T01:09:17.057Z,70.33
2023-03-05T01:09:29.027Z,70.67
2023-03-05T01:09:40.951Z,70.41
2023-03-05T01:09:52.908Z,70.15
2023-03-05T01:10:06.020Z,69.77
2023-03-05T01:10:17.912Z,69.93
2023-03-05T01:10:30.202Z,70.06
2023-03-05T01:10:45.113Z,70.22
2023-03-05T01:10:57.158Z,70.20
2023-03-05T01:11:10.327Z,69.84
2023-03-05T01:11:22.411Z,69.96
2023-03-05T01:11:34.345Z,70.06
2023-03-05T01:11:46.247Z,69.99
2023-03-05T01:11:58.299Z,69.91
2023-03-05T01:12:10.209Z,70.16
2023-03-05T01:12:22.106Z,69.39
2023-03-05T01:12:34.121Z,70.86
2023-03-05T01:12:46.115Z,69.79
2023-03-05T01:12:58.349Z,70.75
2023-03-05T01:13:10.257Z,70.42
2023-03-05T01:13:22.426Z,70.46
2023-03-05T01:13:35.347Z,70.48
2023-03-05T01:13:47.340Z,70.08
2023-03-05T01:13:59.228Z,69.73
2023-03-05T01:14:11.172Z,70.41
2023-03-05T01:14:23.762Z,70.10
2023-03-05T01:14:36.674Z,70.57
2023-03-05T01:14:48.638Z,71.39
2023-03-05T01:15:00.562Z,70.96
2023-03-05T01:15:12.549Z,71.28
2023-03-05T01:15:25.260Z,71.05
2023-03-05T01:15:37.202Z,71.64
2023-03-05T01:15:50.952Z,71.59
2023-03-05T01:16:04.010Z,72.17
2023-03-05T01:16:15.987Z,71.76
2023-03-05T01:16:28.059Z,71.87
2023-03-05T01:16:40.119Z,71.92
2023-03-05T01:16:52.026Z,72.25
2023-03-05T01:17:04.178Z,71.85
2023-03-05T01:17:16.106Z,71.78
2023-03-05T01:17:28.018Z,71.76
2023-03-05T01:17:39.896Z,71.43
2023-03-05T01:17:52.001Z,71.33
2023-03-05T01:18:04.150Z,71.88
2023-03-05T01:18:16.771Z,71.35
2023-03-05T01:18:29.120Z,71.34
2023-03-05T01:18:41.128Z,71.50
2023-03-05T01:18:53.212Z,71.59
2023-03-05T01:19:05.204Z,71.05
2023-03-05T01:19:17.551Z,70.97
2023-03-05T01:19:29.724Z,71.00
2023-03-05T01:19:41.632Z,70.57
2023-03-05T01:19:53.536Z,70.79
2023-03-05T01:20:06.555Z,70.68
2023-03-05T01:20:21.364Z,71.41
2023-03-05T01:20:33.820Z,71.66
2023-03-05T01:20:46.226Z,71.59
2023-03-05T01:20:58.192Z,71.68
2023-03-05T01:21:10.501Z,71.26
2023-03-05T01:21:22.570Z,71.42
2023-03-05T01:21:36.014Z,71.67
2023-03-05T01:21:47.888Z,71.05
2023-03-05T01:22:00.101Z,70.90
2023-03-05T01:22:12.024Z,71.09
2023-03-05T01:22:23.980Z,70.58
2023-03-05T01:22:35.906Z,70.31
2023-03-05T01:22:48.082Z,70.56
2023-03-05T01:23:01.643Z,70.64
2023-03-05T01:23:16.158Z,70.78
2023-03-05T01:23:28.116Z,70.26
2023-03-05T01:23:40.253Z,70.23
2023-03-05T01:23:52.418Z,70.42
2023-03-05T01:24:04.886Z,69.92
2023-03-05T01:24:16.851Z,70.10
2023-03-05T01:24:30.956Z,69.91
2023-03-05T01:24:42.897Z,70.12
2023-03-05T01:24:54.865Z,70.23
2023-03-05T01:25:07.559Z,69.75
2023-03-05T01:25:20.064Z,70.31
2023-03-05T01:25:32.078Z,70.49
2023-03-05T01:25:44.323Z,70.97
2023-03-05T01:25:58.039Z,71.45
2023-03-05T01:26:10.076Z,71.52
2023-03-05T01:26:22.092Z,71.79
2023-03-05T01:26:34.616Z,71.79
2023-03-05T01:26:46.692Z,72.17
2023-03-05T01:26:58.818Z,71.68
2023-03-05T01:27:10.744Z,71.64
2023-03-05T01:27:23.173Z,71.99
2023-03-05T01:27:35.256Z,72.20
2023-03-05T01:27:47.340Z,71.67
2023-03-05T01:27:59.306Z,71.93
2023-03-05T01:28:11.488Z,71.89
2023-03-05T01:28:23.525Z,72.36
2023-03-05T01:28:38.637Z,72.09
2023-03-05T01:28:50.687Z,71.80
2023-03-05T01:29:02.975Z,72.09
2023-03-05T01:29:15.537Z,72.01
2023-03-05T01:29:28.164Z,72.09
2023-03-05T01:29:40.043Z,71.65
2023-03-05T01:29:51.963Z,71.52
2023-03-05T01:30:05.314Z,71.79
2023-03-05T01:30:17.360Z,71.30
2023-03-05T01:30:29.352Z,70.74
2023-03-05T01:30:41.264Z,70.46
2023-03-05T01:30:56.244Z,70.60
2023-03-05T01:31:09.851Z,70.71
2023-03-05T01:31:22.158Z,70.24
2023-03-05T01:31:34.172Z,70.49
2023-03-05T01:31:46.195Z,70.03
2023-03-05T01:31:58.207Z,70.02
2023-03-05T01:32:10.130Z,70.25
2023-03-05T01:32:22.094Z,69.83
2023-03-05T01:32:35.880Z,69.36
2023-03-05T01:32:47.912Z,69.39
2023-03-05T01:33:00.125Z,69.85
2023-03-05T01:33:12.028Z,70.54
2023-03-05T01:33:24.049Z,70.82
2023-03-05T01:33:36.205Z,70.53
2023-03-05T01:33:48.445Z,70.83
2023-03-05T01:34:00.415Z,70.65
2023-03-05T01:34:13.589Z,70.48
2023-03-05T01:34:25.508Z,70.66
2023-03-05T01:34:37.817Z,69.86
2023-03-05T01:34:49.792Z,69.80
2023-03-05T01:35:03.928Z,69.82
2023-03-05T01:35:21.382Z,69.26
2023-03-05T01:35:33.392Z,69.26
2023-03-05T01:35:49.200Z,69.07
2023-03-05T01:36:01.152Z,69.37
2023-03-05T01:36:16.697Z,68.99
2023-03-05T01:36:28.701Z,68.83
2023-03-05T01:36:42.358Z,69.38
2023-03-05T01:36:54.304Z,68.92
2023-03-05T01:37:06.213Z,68.43
2023-03-05T01:37:18.237Z,68.36
2023-03-05T01:37:30.597Z,68.99
2023-03-05T01:37:42.750Z,68.11
2023-03-05T01:37:54.932Z,68.73
2023-03-05T01:38:06.832Z,68.38
2023-03-05T01:38:18.977Z,68.04
2023-03-05T01:38:30.858Z,68.33
2023-03-05T01:38:44.436Z,67.98
2023-03-05T01:38:56.349Z,68.30
2023-03-05T01:39:08.402Z,68.38
2023-03-05T01:39:20.287Z,67.75
2023-03-05T01:39:32.261Z,68.52
2023-03-05T01:39:44.489Z,68.31
2023-03-05T01:39:56.535Z,67.84
2023-03-05T01:40:10.263Z,67.64
2023-03-05T01:40:26.312Z,67.89
2023-03-05T01:40:38.296Z,67.72
2023-03-05T01:40:50.968Z,67.78
2023-03-05T01:41:02.977Z,67.92
2023-03-05T01:41:16.124Z,67.60
2023-03-05T01:41:28.218Z,67.71
2023-03-05T01:41:40.182Z,67.87
2023-03-05T01:41:52.079Z,67.85
2023-03-05T01:42:04.843Z,67.60
2023-03-05T01:42:17.060Z,68.09
2023-03-05T01:42:28.981Z,67.47
2023-03-05T01:42:46.805Z,67.81
2023-03-05T01:43:23.923Z,67.71
2023-03-05T01:43:35.889Z,67.88
2023-03-05T01:43:48.836Z,67.96
2023-03-05T01:44:00.865Z,67.51
2023-03-05T01:44:30.409Z,68.57
2023-03-05T01:45:12.229Z,68.46
2023-03-05T01:45:24.994Z,68.23
2023-03-05T01:45:38.049Z,68.24
2023-03-05T01:46:17.722Z,68.04
2023-03-05T01:46:29.655Z,68.29
2023-03-05T01:46:41.634Z,67.59
2023-03-05T01:46:53.712Z,67.59
2023-03-05T01:47:05.772Z,67.74
2023-03-05T01:47:17.695Z,68.10
2023-03-05T01:47:30.237Z,68.05
2023-03-05T01:47:43.084Z,68.23
2023-03-05T01:47:54.982Z,67.74
2023-03-05T01:48:06.857Z,67.16
2023-03-05T01:48:18.830Z,67.55
2023-03-05T01:48:30.765Z,67.54
2023-03-05T01:48:47.308Z,67.49
2023-03-05T01:49:03.099Z,67.61
2023-03-05T01:49:20.770Z,67.49
2023-03-05T01:49:38.262Z,67.19
2023-03-05T01:49:50.194Z,67.22
2023-03-05T01:50:04.152Z,66.98
2023-03-05T01:50:22.777Z,65.90
2023-03-05T01:50:34.764Z,66.48
2023-03-05T01:50:46.829Z,66.38
2023-03-05T01:50:58.802Z,66.44
2023-03-05T01:51:10.760Z,66.23
2023-03-05T01:51:26.819Z,66.27
2023-03-05T01:51:55.073Z,66.89
2023-03-05T01:52:19.516Z,66.73
2023-03-05T01:52:33.403Z,67.13
2023-03-05T01:53:00.274Z,67.34
2023-03-05T01:53:12.329Z,66.93
2023-03-05T01:53:24.293Z,67.03
2023-03-05T01:53:36.841Z,67.12
2023-03-05T01:53:49.405Z,67.14
2023-03-05T01:54:03.195Z,67.45
2023-03-05T01:54:19.341Z,66.86
2023-03-05T01:54:37.138Z,66.87
2023-03-05T01:54:51.719Z,66.97
2023-03-05T01:55:08.017Z,67.19
2023-03-05T01:55:24.062Z,66.86
2023-03-05T01:55:37.249Z,67.13
2023-03-05T01:55:49.363Z,67.17
2023-03-05T01:56:01.594Z,66.71
2023-03-05T01:56:13.557Z,67.07
2023-03-05T01:56:27.565Z,67.26
2023-03-05T01:56:40.798Z,67.04
2023-03-05T01:56:55.969Z,66.95
2023-03-05T01:57:13.045Z,66.75
2023-03-05T01:57:30.373Z,67.40
2023-03-05T01:57:44.562Z,66.73
2023-03-05T01:58:03.143Z,67.07
2023-03-05T01:58:15.076Z,66.99
2023-03-05T01:58:27.480Z,67.20
2023-03-05T01:58:39.858Z,67.34
2023-03-05T01:58:53.428Z,67.21
2023-03-05T01:59:05.982Z,67.17
2023-03-05T01:59:18.866Z,66.95
2023-03-05T01:59:31.380Z,67.03
2023-03-05T01:59:45.993Z,67.12
2023-03-05T02:00:01.568Z,66.58
2023-03-05T02:00:25.054Z,67.40
2023-03-05T02:00:45.782Z,67.12
2023-03-05T02:00:58.257Z,66.99
2023-03-05T02:01:10.286Z,67.56
2023-03-05T02:01:22.316Z,67.00
2023-03-05T02:01:40.133Z,67.62
2023-03-05T02:01:55.998Z,66.60
2023-03-05T02:02:08.421Z,67.12
2023-03-05T02:02:22.110Z,66.76
2023-03-05T02:02:34.089Z,67.01
2023-03-05T02:02:48.861Z,66.59
2023-03-05T02:03:06.436Z,66.86
2023-03-05T02:03:19.713Z,67.00
2023-03-05T02:03:32.666Z,66.73
2023-03-05T02:03:45.325Z,66.80
2023-03-05T02:03:57.816Z,67.31
2023-03-05T02:04:13.019Z,67.28
2023-03-05T02:04:32.453Z,67.15
2023-03-05T02:04:52.577Z,66.93
2023-03-05T02:05:10.019Z,67.20
2023-03-05T02:05:31.345Z,67.20
2023-03-05T02:05:44.439Z,67.04
2023-03-05T02:05:56.366Z,67.24
2023-03-05T02:06:08.542Z,67.48
2023-03-05T02:06:20.499Z,67.45
2023-03-05T02:06:33.355Z,67.30
2023-03-05T02:06:46.934Z,67.35
2023-03-05T02:06:59.707Z,67.27
2023-03-05T02:07:12.636Z,67.81
2023-03-05T02:07:25.330Z,67.89
2023-03-05T02:07:40.048Z,68.19
2023-03-05T02:07:52.048Z,67.78
2023-03-05T02:08:07.121Z,67.73
2023-03-05T02:08:21.197Z,67.41
2023-03-05T02:08:33.094Z,67.28
2023-03-05T02:08:45.009Z,67.67
2023-03-05T02:08:57.126Z,67.34
2023-03-05T02:09:09.834Z,67.36
2023-03-05T02:09:23.868Z,67.54
2023-03-05T02:09:39.696Z,67.62
2023-03-05T02:09:51.770Z,67.13
2023-03-05T02:10:21.097Z,67.49
2023-03-05T02:10:37.507Z,67.03
2023-03-05T02:10:52.594Z,67.61
2023-03-05T02:11:05.089Z,67.27
2023-03-05T02:11:17.079Z,67.58
2023-03-05T02:11:29.387Z,67.53
2023-03-05T02:11:42.252Z,67.23
2023-03-05T02:11:55.160Z,67.31
2023-03-05T02:12:08.705Z,67.27
2023-03-05T02:12:21.083Z,67.00
2023-03-05T02:12:34.577Z,67.70
2023-03-05T02:12:49.058Z,67.89
2023-03-05T02:13:04.115Z,67.72
2023-03-05T02:13:20.008Z,67.73
2023-03-05T02:13:38.204Z,67.98
2023-03-05T02:13:50.223Z,67.61
2023-03-05T02:14:05.027Z,67.29
2023-03-05T02:14:16.995Z,67.99
2023-03-05T02:14:29.124Z,68.28
2023-03-05T02:14:45.013Z,67.95
2023-03-05T02:14:59.320Z,67.69
2023-03-05T02:15:12.436Z,68.11
2023-03-05T02:15:24.564Z,68.06
2023-03-05T02:15:37.808Z,67.89
2023-03-05T02:15:51.128Z,67.75
2023-03-05T02:16:03.196Z,68.14
2023-03-05T02:16:15.310Z,67.51
2023-03-05T02:16:35.705Z,68.30
2023-03-05T02:16:47.792Z,67.55
2023-03-05T02:16:59.940Z,67.86
2023-03-05T02:17:12.673Z,68.02
2023-03-05T02:17:27.768Z,67.91
2023-03-05T02:17:39.869Z,67.95
2023-03-05T02:17:51.995Z,67.88
2023-03-05T02:18:04.488Z,68.24
2023-03-05T02:18:20.998Z,68.14
2023-03-05T02:18:33.034Z,68.30
2023-03-05T02:18:45.063Z,68.04
2023-03-05T02:18:57.035Z,67.51
2023-03-05T02:19:11.837Z,67.63
2023-03-05T02:19:23.786Z,68.10
2023-03-05T02:19:56.410Z,67.92
2023-03-05T02:20:21.129Z,67.80
2023-03-05T02:20:53.850Z,67.80
2023-03-05T02:21:09.917Z,68.19
2023-03-05T02:21:35.506Z,67.10
2023-03-05T02:21:50.507Z,67.48
2023-03-05T02:22:02.472Z,67.77
2023-03-05T02:22:15.569Z,67.93
2023-03-05T02:22:27.507Z,67.67
2023-03-05T02:22:39.476Z,67.59
2023-03-05T02:22:51.875Z,67.88
2023-03-05T02:23:03.762Z,67.36
2023-03-05T02:23:17.288Z,67.88
2023-03-05T02:23:36.334Z,68.27
2023-03-05T02:23:48.220Z,68.28
2023-03-05T02:24:00.107Z,67.89
2023-03-05T02:24:17.491Z,67.96
2023-03-05T02:24:36.158Z,67.88
2023-03-05T02:24:48.389Z,67.86
2023-03-05T02:25:00.325Z,68.05
2023-03-05T02:25:17.855Z,67.78
2023-03-05T02:25:29.849Z,68.02
2023-03-05T02:25:41.853Z,67.69
2023-03-05T02:25:53.822Z,67.93
2023-03-05T02:26:09.153Z,67.71
2023-03-05T02:26:21.179Z,68.04
2023-03-05T02:26:33.110Z,68.05
2023-03-05T02:26:46.811Z,67.89
2023-03-05T02:26:58.761Z,67.42
2023-03-05T02:27:13.033Z,67.61
2023-03-05T02:27:34.809Z,68.19
2023-03-05T02:27:54.671Z,67.58
2023-03-05T02:28:13.823Z,67.55
2023-03-05T02:28:34.545Z,67.51
2023-03-05T02:28:53.655Z,67.46
2023-03-05T02:29:08.989Z,67.30
2023-03-05T02:29:21.097Z,67.09
2023-03-05T02:29:34.809Z,67.44
2023-03-05T02:29:46.766Z,67.15
2023-03-05T02:29:58.659Z,67.14
2023-03-05T02:30:11.341Z,67.79
2023-03-05T02:30:23.537Z,67.17
2023-03-05T02:30:35.961Z,67.16
2023-03-05T02:30:47.879Z,67.37
2023-03-05T02:31:00.019Z,67.55
2023-03-05T02:31:17.863Z,67.66
2023-03-05T02:31:31.159Z,67.63
2023-03-05T02:31:43.271Z,67.87
2023-03-05T02:31:55.490Z,67.72
2023-03-05T02:32:08.610Z,67.79
2023-03-05T02:32:20.720Z,68.07
2023-03-05T02:32:32.687Z,68.16
2023-03-05T02:32:44.654Z,68.07
2023-03-05T02:32:56.917Z,68.10
2023-03-05T02:33:08.917Z,67.84
2023-03-05T02:33:21.221Z,67.68
2023-03-05T02:33:33.118Z,68.19
2023-03-05T02:33:46.106Z,67.53
2023-03-05T02:33:58.092Z,67.72
2023-03-05T02:34:10.329Z,67.63
2023-03-05T02:34:23.324Z,67.77
2023-03-05T02:34:36.273Z,67.72
2023-03-05T02:34:48.167Z,67.55
2023-03-05T02:35:00.148Z,67.90
2023-03-05T02:35:12.101Z,67.97
2023-03-05T02:35:24.798Z,67.66
2023-03-05T02:35:36.885Z,67.64
2023-03-05T02:35:48.945Z,67.69
2023-03-05T02:36:00.974Z,67.65
2023-03-05T02:36:13.336Z,67.88
2023-03-05T02:36:25.454Z,67.98
2023-03-05T02:36:37.412Z,68.17
2023-03-05T02:36:50.322Z,68.05
2023-03-05T02:37:04.525Z,68.24
2023-03-05T02:37:16.469Z,67.94
2023-03-05T02:37:28.547Z,67.77
2023-03-05T02:37:40.892Z,68.26
2023-03-05T02:37:53.107Z,68.15
2023-03-05T02:38:05.036Z,67.97
2023-03-05T02:38:19.145Z,67.77
2023-03-05T02:38:31.078Z,67.34
2023-03-05T02:38:43.628Z,67.35
2023-03-05T02:38:57.082Z,67.81
2023-03-05T02:39:09.831Z,67.66
2023-03-05T02:39:21.803Z,67.48
2023-03-05T02:39:33.712Z,67.23
2023-03-05T02:39:45.608Z,67.39
2023-03-05T02:39:57.540Z,67.74
2023-03-05T02:40:10.875Z,67.38
2023-03-05T02:40:23.790Z,67.22
2023-03-05T02:40:35.682Z,67.45
2023-03-05T02:40:47.648Z,66.88
2023-03-05T02:40:59.628Z,67.54
2023-03-05T02:41:15.041Z,67.92
2023-03-05T02:41:27.107Z,67.48
2023-03-05T02:41:39.113Z,67.83
2023-03-05T02:41:51.087Z,67.65
2023-03-05T02:42:03.388Z,67.87
2023-03-05T02:42:15.368Z,67.34
2023-03-05T02:42:27.330Z,66.96
2023-03-05T02:42:39.894Z,67.57
2023-03-05T02:42:51.846Z,67.77
2023-03-05T02:43:03.812Z,67.74
2023-03-05T02:43:15.724Z,67.40
2023-03-05T02:43:27.654Z,67.35
2023-03-05T02:43:39.567Z,67.65
2023-03-05T02:43:51.521Z,67.54
2023-03-05T02:44:03.503Z,67.64
2023-03-05T02:44:15.472Z,67.81
2023-03-05T02:44:27.396Z,68.00
2023-03-05T02:44:39.324Z,68.05
2023-03-05T02:44:51.221Z,68.19
2023-03-05T02:45:06.461Z,67.96
2023-03-05T02:45:18.402Z,67.53
2023-03-05T02:45:30.463Z,68.19
2023-03-05T02:45:42.562Z,68.48
2023-03-05T02:45:54.647Z,68.13
2023-03-05T02:46:07.763Z,67.99
2023-03-05T02:46:19.997Z,68.62
2023-03-05T02:46:31.895Z,68.63
2023-03-05T02:46:43.850Z,68.40
2023-03-05T02:46:56.884Z,68.30
2023-03-05T02:47:08.933Z,68.79
2023-03-05T02:47:20.834Z,68.59
2023-03-05T02:47:33.069Z,68.10
2023-03-05T02:47:45.050Z,68.01
2023-03-05T02:47:56.962Z,68.58
2023-03-05T02:48:08.946Z,68.66
2023-03-05T02:48:20.968Z,68.45
2023-03-05T02:48:33.116Z,68.22
2023-03-05T02:48:45.458Z,67.96
2023-03-05T02:48:57.449Z,67.89
2023-03-05T02:49:09.418Z,68.46
2023-03-05T02:49:21.345Z,68.01
2023-03-05T02:49:33.271Z,67.63
2023-03-05T02:49:45.255Z,68.13
2023-03-05T02:49:57.658Z,68.12
2023-03-05T02:50:11.381Z,67.59